createdAt,value
2024-03-02T00:00:12.645Z,605.00
2024-03-02T00:01:12.764Z,603.00
2024-03-02T00:02:12.690Z,604.00
2024-03-02T00:03:12.755Z,600.00
2024-03-02T00:04:12.795Z,605.00
2024-03-02T00:05:12.843Z,603.00
2024-03-02T00:06:12.917Z,603.00
2024-03-02T00:07:12.938Z,604.00
2024-03-02T00:08:12.990Z,603.00
2024-03-02T00:09:13.028Z,603.00
2024-03-02T00:10:13.004Z,603.00
2024-03-02T00:11:13.013Z,604.00
2024-03-02T00:12:13.116Z,604.00
2024-03-02T00:13:13.017Z,604.00
2024-03-02T00:14:13.019Z,604.00
2024-03-02T00:15:13.125Z,603.00
2024-03-02T00:16:13.032Z,602.00
2024-03-02T00:17:13.033Z,604.00
2024-03-02T00:18:13.118Z,600.00
2024-03-02T00:19:13.013Z,605.00
2024-03-02T00:20:13.027Z,602.00
2024-03-02T00:21:13.055Z,604.00
2024-03-02T00:22:13.024Z,605.00
2024-03-02T00:23:13.040Z,601.00
2024-03-02T00:24:13.140Z,601.00
2024-03-02T00:25:13.241Z,601.00
2024-03-02T00:26:13.092Z,602.00
2024-03-02T00:27:13.159Z,602.00
2024-03-02T00:28:13.079Z,603.00
2024-03-02T00:29:13.079Z,602.00
2024-03-02T00:30:13.144Z,603.00
2024-03-02T00:31:13.102Z,602.00
2024-03-02T00:32:13.101Z,602.00
2024-03-02T00:33:13.204Z,603.00
2024-03-02T00:34:13.155Z,601.00
2024-03-02T00:35:13.114Z,601.00
2024-03-02T00:36:13.133Z,601.00
2024-03-02T00:37:13.144Z,600.00
2024-03-02T00:38:13.142Z,602.00
2024-03-02T00:39:13.372Z,601.00
2024-03-02T00:40:13.249Z,603.00
2024-03-02T00:41:13.282Z,603.00
2024-03-02T00:42:13.398Z,603.00
2024-03-02T00:43:13.379Z,601.00
2024-03-02T00:44:13.460Z,604.00
2024-03-02T00:45:13.502Z,602.00
2024-03-02T00:46:13.540Z,603.00
2024-03-02T00:47:13.593Z,602.00
2024-03-02T00:48:13.678Z,604.00
2024-03-02T00:49:13.720Z,602.00
2024-03-02T00:50:20.630Z,605.00
2024-03-02T00:51:14.790Z,605.00
2024-03-02T00:52:13.737Z,605.00
2024-03-02T00:53:13.751Z,604.00
2024-03-02T00:54:13.766Z,603.00
2024-03-02T00:55:13.758Z,605.00
2024-03-02T00:56:13.759Z,600.00
2024-03-02T00:57:13.885Z,606.00
2024-03-02T00:58:13.777Z,602.00
2024-03-02T00:59:13.770Z,603.00
2024-03-02T01:00:13.795Z,602.00
2024-03-02T01:01:13.813Z,604.00
2024-03-02T01:02:13.760Z,604.00
2024-03-02T01:03:13.826Z,604.00
2024-03-02T01:04:13.821Z,603.00
2024-03-02T01:05:13.874Z,605.00
2024-03-02T01:06:13.955Z,603.00
2024-03-02T01:07:13.960Z,603.00
2024-03-02T01:08:14.009Z,604.00
2024-03-02T01:09:14.159Z,605.00
2024-03-02T01:10:14.127Z,603.00
2024-03-02T01:11:14.204Z,600.00
2024-03-02T01:12:14.237Z,605.00
2024-03-02T01:13:14.279Z,606.00
2024-03-02T01:14:14.313Z,604.00
2024-03-02T01:15:14.426Z,607.00
2024-03-02T01:16:14.435Z,603.00
2024-03-02T01:17:14.488Z,605.00
2024-03-02T01:18:14.558Z,604.00
2024-03-02T01:19:14.624Z,605.00
2024-03-02T01:20:14.654Z,604.00
2024-03-02T01:21:14.686Z,604.00
2024-03-02T01:22:14.704Z,605.00
2024-03-02T01:23:14.766Z,605.00
2024-03-02T01:24:14.836Z,605.00
2024-03-02T01:25:14.870Z,604.00
2024-03-02T01:26:14.917Z,606.00
2024-03-02T01:27:15.046Z,604.00
2024-03-02T01:28:15.066Z,604.00
2024-03-02T01:29:15.087Z,607.00
2024-03-02T01:30:15.172Z,605.00
2024-03-02T01:31:15.186Z,606.00
2024-03-02T01:32:15.236Z,604.00
2024-03-02T01:33:15.319Z,605.00
2024-03-02T01:34:15.344Z,604.00
2024-03-02T01:35:15.379Z,605.00
2024-03-02T01:36:15.482Z,609.00
2024-03-02T01:37:15.503Z,606.00
2024-03-02T01:38:15.530Z,603.00
2024-03-02T01:39:15.596Z,605.00
2024-03-02T01:40:15.644Z,606.00
2024-03-02T01:41:15.680Z,606.00
2024-03-02T01:42:15.746Z,604.00
2024-03-02T01:43:15.770Z,603.00
2024-03-02T01:44:15.827Z,605.00
2024-03-02T01:45:15.926Z,605.00
2024-03-02T01:46:15.960Z,606.00
2024-03-02T01:47:15.937Z,604.00
2024-03-02T01:48:16.022Z,606.00
2024-03-02T01:49:15.959Z,606.00
2024-03-02T01:50:15.936Z,607.00
2024-03-02T01:51:15.967Z,607.00
2024-03-02T01:52:15.932Z,604.00
2024-03-02T01:53:15.934Z,607.00
2024-03-02T01:54:15.962Z,608.00
2024-03-02T01:55:15.944Z,609.00
2024-03-02T01:56:15.939Z,606.00
2024-03-02T01:57:15.990Z,604.00
2024-03-02T01:58:15.955Z,606.00
2024-03-02T01:59:15.966Z,604.00
2024-03-02T02:00:16.091Z,605.00
2024-03-02T02:01:16.150Z,604.00
2024-03-02T02:02:16.139Z,607.00
2024-03-02T02:03:16.223Z,602.00
2024-03-02T02:04:16.230Z,605.00
2024-03-02T02:05:16.301Z,603.00
2024-03-02T02:06:16.413Z,608.00
2024-03-02T02:07:16.400Z,604.00
2024-03-02T02:08:16.452Z,603.00
2024-03-02T02:09:16.553Z,605.00
2024-03-02T02:10:16.577Z,604.00
2024-03-02T02:11:16.641Z,606.00
2024-03-02T02:12:16.730Z,606.00
2024-03-02T02:13:16.717Z,602.00
2024-03-02T02:14:16.788Z,604.00
2024-03-02T02:15:16.848Z,603.00
2024-03-02T02:16:16.891Z,605.00
2024-03-02T02:17:16.940Z,606.00
2024-03-02T02:18:17.099Z,606.00
2024-03-02T02:19:17.073Z,606.00
2024-03-02T02:20:17.118Z,601.00
2024-03-02T02:21:17.267Z,606.00
2024-03-02T02:22:17.254Z,607.00
2024-03-02T02:23:17.312Z,606.00
2024-03-02T02:24:17.367Z,606.00
2024-03-02T02:25:17.304Z,606.00
2024-03-02T02:26:17.274Z,606.00
2024-03-02T02:27:17.307Z,604.00
2024-03-02T02:28:17.252Z,606.00
2024-03-02T02:29:17.263Z,604.00
2024-03-02T02:30:17.269Z,606.00
2024-03-02T02:31:17.256Z,606.00
2024-03-02T02:32:17.238Z,606.00
2024-03-02T02:33:17.354Z,606.00
2024-03-02T02:34:17.239Z,606.00
2024-03-02T02:35:17.241Z,606.00
2024-03-02T02:36:17.278Z,606.00
2024-03-02T02:37:17.254Z,608.00
2024-03-02T02:38:17.232Z,607.00
2024-03-02T02:39:17.303Z,607.00
2024-03-02T02:40:17.238Z,607.00
2024-03-02T02:41:17.232Z,607.00
2024-03-02T02:42:17.302Z,606.00
2024-03-02T02:43:17.227Z,604.00
2024-03-02T02:44:17.224Z,603.00
2024-03-02T02:45:17.284Z,603.00
2024-03-02T02:46:17.237Z,604.00
2024-03-02T02:47:17.229Z,608.00
2024-03-02T02:48:17.280Z,602.00
2024-03-02T02:49:17.247Z,603.00
2024-03-02T02:50:17.250Z,604.00
2024-03-02T02:51:17.320Z,601.00
2024-03-02T02:52:17.367Z,601.00
2024-03-02T02:53:17.417Z,602.00
2024-03-02T02:54:17.481Z,604.00
2024-03-02T02:55:17.522Z,604.00
2024-03-02T02:56:17.517Z,603.00
2024-03-02T02:57:17.535Z,602.00
2024-03-02T02:58:17.508Z,605.00
2024-03-02T02:59:17.526Z,601.00
2024-03-02T03:00:18.583Z,601.00
2024-03-02T03:01:17.573Z,604.00
2024-03-02T03:02:17.506Z,604.00
2024-03-02T03:03:17.548Z,605.00
2024-03-02T03:04:17.512Z,605.00
2024-03-02T03:05:17.589Z,604.00
2024-03-02T03:06:17.576Z,605.00
2024-03-02T03:07:17.513Z,607.00
2024-03-02T03:08:17.516Z,603.00
2024-03-02T03:09:17.530Z,607.00
2024-03-02T03:10:17.521Z,603.00
2024-03-02T03:11:17.546Z,602.00
2024-03-02T03:12:17.559Z,603.00
2024-03-02T03:13:17.540Z,602.00
2024-03-02T03:14:17.556Z,601.00
2024-03-02T03:15:17.852Z,603.00
2024-03-02T03:16:17.552Z,605.00
2024-03-02T03:17:17.548Z,604.00
2024-03-02T03:18:17.653Z,604.00
2024-03-02T03:19:17.559Z,604.00
2024-03-02T03:20:17.546Z,603.00
2024-03-02T03:21:17.583Z,591.00
2024-03-02T03:22:17.557Z,579.00
2024-03-02T03:23:17.560Z,600.00
2024-03-02T03:24:17.583Z,599.00
2024-03-02T03:25:17.561Z,600.00
2024-03-02T03:26:17.558Z,600.00
2024-03-02T03:27:17.590Z,600.00
2024-03-02T03:28:17.577Z,600.00
2024-03-02T03:29:17.563Z,600.00
2024-03-02T03:30:17.631Z,598.00
2024-03-02T03:31:17.589Z,600.00
2024-03-02T03:32:17.628Z,600.00
2024-03-02T03:33:17.734Z,600.00
2024-03-02T03:34:17.759Z,600.00
2024-03-02T03:35:17.870Z,600.00
2024-03-02T03:36:17.894Z,599.00
2024-03-02T03:37:17.982Z,600.00
2024-03-02T03:38:18.008Z,600.00
2024-03-02T03:39:18.112Z,602.00
2024-03-02T03:40:18.147Z,598.00
2024-03-02T03:41:18.207Z,600.00
2024-03-02T03:42:18.307Z,601.00
2024-03-02T03:43:18.350Z,602.00
2024-03-02T03:44:18.423Z,600.00
2024-03-02T03:45:18.531Z,600.00
2024-03-02T03:46:18.437Z,600.00
2024-03-02T03:47:18.473Z,600.00
2024-03-02T03:48:18.509Z,601.00
2024-03-02T03:49:18.511Z,603.00
2024-03-02T03:50:18.522Z,601.00
2024-03-02T03:51:18.559Z,604.00
2024-03-02T03:52:18.560Z,601.00
2024-03-02T03:53:18.565Z,605.00
2024-03-02T03:54:18.690Z,599.00
2024-03-02T03:55:18.611Z,599.00
2024-03-02T03:56:18.615Z,592.00
2024-03-02T03:57:18.706Z,590.00
2024-03-02T03:58:20.052Z,585.00
2024-03-02T03:59:18.635Z,575.00
2024-03-02T04:00:18.689Z,601.00
2024-03-02T04:01:18.719Z,605.00
2024-03-02T04:02:18.667Z,604.00
2024-03-02T04:03:18.715Z,601.00
2024-03-02T04:04:18.670Z,606.00
2024-03-02T04:05:18.714Z,603.00
2024-03-02T04:06:18.755Z,601.00
2024-03-02T04:07:18.748Z,603.00
2024-03-02T04:08:18.725Z,600.00
2024-03-02T04:09:18.780Z,600.00
2024-03-02T04:10:18.761Z,605.00
2024-03-02T04:11:18.802Z,598.00
2024-03-02T04:12:18.820Z,595.00
2024-03-02T04:13:18.785Z,589.00
2024-03-02T04:14:18.794Z,589.00
2024-03-02T04:15:18.884Z,582.00
2024-03-02T04:16:18.824Z,602.00
2024-03-02T04:17:18.829Z,602.00
2024-03-02T04:18:18.871Z,600.00
2024-03-02T04:19:18.869Z,602.00
2024-03-02T04:20:18.892Z,602.00
2024-03-02T04:21:18.965Z,600.00
2024-03-02T04:22:24.991Z,597.00
2024-03-02T04:23:19.941Z,593.00
2024-03-02T04:24:18.942Z,594.00
2024-03-02T04:25:18.951Z,588.00
2024-03-02T04:26:18.965Z,588.00
2024-03-02T04:27:19.017Z,585.00
2024-03-02T04:28:18.973Z,602.00
2024-03-02T04:29:18.988Z,602.00
2024-03-02T04:30:19.043Z,601.00
2024-03-02T04:31:19.008Z,599.00
2024-03-02T04:32:19.025Z,597.00
2024-03-02T04:33:19.179Z,601.00
2024-03-02T04:34:19.040Z,601.00
2024-03-02T04:35:31.197Z,600.00
2024-03-02T04:36:31.266Z,600.00
2024-03-02T04:37:31.190Z,600.00
2024-03-02T04:38:31.173Z,600.00
2024-03-02T04:39:31.169Z,600.00
2024-03-02T04:40:31.162Z,600.00
2024-03-02T04:41:31.157Z,600.00
2024-03-02T04:42:31.193Z,600.00
2024-03-02T04:43:31.153Z,600.00
2024-03-02T04:44:31.128Z,600.00
2024-03-02T04:45:31.149Z,603.00
2024-03-02T04:46:31.110Z,600.00
2024-03-02T04:47:31.122Z,603.00
2024-03-02T04:48:31.315Z,600.00
2024-03-02T04:49:31.320Z,602.00
2024-03-02T04:50:31.272Z,603.00
2024-03-02T04:51:31.317Z,599.00
2024-03-02T04:52:31.360Z,605.00
2024-03-02T04:53:31.406Z,606.00
2024-03-02T04:54:31.448Z,607.00
2024-03-02T04:55:31.473Z,605.00
2024-03-02T04:56:31.499Z,606.00
2024-03-02T04:57:31.585Z,604.00
2024-03-02T04:58:31.572Z,602.00
2024-03-02T04:59:31.617Z,605.00
2024-03-02T05:00:31.673Z,602.00
2024-03-02T05:01:31.719Z,606.00
2024-03-02T05:02:31.724Z,600.00
2024-03-02T05:03:31.828Z,601.00
2024-03-02T05:04:31.788Z,605.00
2024-03-02T05:05:31.849Z,600.00
2024-03-02T05:06:31.891Z,604.00
2024-03-02T05:07:31.876Z,605.00
2024-03-02T05:08:31.939Z,606.00
2024-03-02T05:09:31.975Z,602.00
2024-03-02T05:10:31.955Z,600.00
2024-03-02T05:11:32.078Z,600.00
2024-03-02T05:12:32.050Z,607.00
2024-03-02T05:13:32.000Z,608.00
2024-03-02T05:14:32.045Z,605.00
2024-03-02T05:15:32.104Z,604.00
2024-03-02T05:16:32.060Z,608.00
2024-03-02T05:17:32.150Z,604.00
2024-03-02T05:18:32.139Z,605.00
2024-03-02T05:19:32.095Z,606.00
2024-03-02T05:20:32.087Z,604.00
2024-03-02T05:21:32.143Z,601.00
2024-03-02T05:22:32.123Z,602.00
2024-03-02T05:23:32.121Z,605.00
2024-03-02T05:24:32.210Z,604.00
2024-03-02T05:25:32.204Z,606.00
2024-03-02T05:26:32.228Z,603.00
2024-03-02T05:27:32.292Z,602.00
2024-03-02T05:28:32.237Z,600.00
2024-03-02T05:29:32.236Z,600.00
2024-03-02T05:30:32.300Z,605.00
2024-03-02T05:31:32.255Z,607.00
2024-03-02T05:32:32.239Z,603.00
2024-03-02T05:33:32.326Z,602.00
2024-03-02T05:34:32.251Z,607.00
2024-03-02T05:35:32.212Z,607.00
2024-03-02T05:36:32.239Z,604.00
2024-03-02T05:37:32.224Z,602.00
2024-03-02T05:38:32.211Z,605.00
2024-03-02T05:39:32.237Z,603.00
2024-03-02T05:40:32.194Z,602.00
2024-03-02T05:41:32.182Z,604.00
2024-03-02T05:42:32.238Z,603.00
2024-03-02T05:43:32.176Z,607.00
2024-03-02T05:44:32.178Z,604.00
2024-03-02T05:45:32.176Z,608.00
2024-03-02T05:46:32.173Z,610.00
2024-03-02T05:47:32.176Z,611.00
2024-03-02T05:48:32.196Z,611.00
2024-03-02T05:49:32.168Z,615.00
2024-03-02T05:50:32.180Z,610.00
2024-03-02T05:51:32.232Z,606.00
2024-03-02T05:52:32.179Z,609.00
2024-03-02T05:53:32.168Z,614.00
2024-03-02T05:54:32.207Z,609.00
2024-03-02T05:55:32.169Z,616.00
2024-03-02T05:56:32.172Z,616.00
2024-03-02T05:57:32.172Z,613.00
2024-03-02T05:58:32.150Z,611.00
2024-03-02T05:59:32.150Z,611.00
2024-03-02T06:00:32.245Z,614.00
2024-03-02T06:01:32.224Z,614.00
2024-03-02T06:02:32.115Z,611.00
2024-03-02T06:03:32.106Z,612.00
2024-03-02T06:04:32.088Z,614.00
2024-03-02T06:05:32.086Z,616.00
2024-03-02T06:06:32.140Z,615.00
2024-03-02T06:07:32.149Z,615.00
2024-03-02T06:08:32.061Z,616.00
2024-03-02T06:09:32.098Z,617.00
2024-03-02T06:10:32.069Z,617.00
2024-03-02T06:11:32.086Z,621.00
2024-03-02T06:12:32.063Z,620.00
2024-03-02T06:13:32.039Z,628.00
2024-03-02T06:14:32.014Z,633.00
2024-03-02T06:15:32.045Z,625.00
2024-03-02T06:16:31.994Z,631.00
2024-03-02T06:17:32.071Z,635.00
2024-03-02T06:18:32.012Z,637.00
2024-03-02T06:19:31.954Z,635.00
2024-03-02T06:20:34.477Z,637.00
2024-03-02T06:21:31.988Z,636.00
2024-03-02T06:22:31.921Z,635.00
2024-03-02T06:23:31.895Z,638.00
2024-03-02T06:24:31.924Z,634.00
2024-03-02T06:25:31.891Z,636.00
2024-03-02T06:26:31.887Z,630.00
2024-03-02T06:27:31.928Z,624.00
2024-03-02T06:28:31.847Z,622.00
2024-03-02T06:29:31.831Z,616.00
2024-03-02T06:30:31.838Z,617.00
2024-03-02T06:31:31.812Z,617.00
2024-03-02T06:32:31.827Z,616.00
2024-03-02T06:33:31.812Z,618.00
2024-03-02T06:34:31.781Z,615.00
2024-03-02T06:35:31.775Z,614.00
2024-03-02T06:36:31.862Z,611.00
2024-03-02T06:37:31.756Z,609.00
2024-03-02T06:38:31.745Z,607.00
2024-03-02T06:39:31.765Z,606.00
2024-03-02T06:40:31.742Z,604.00
2024-03-02T06:41:31.725Z,602.00
2024-03-02T06:42:31.807Z,605.00
2024-03-02T06:43:31.699Z,603.00
2024-03-02T06:44:31.694Z,608.00
2024-03-02T06:45:31.781Z,609.00
2024-03-02T06:46:31.685Z,607.00
2024-03-02T06:47:31.681Z,613.00
2024-03-02T06:48:31.799Z,619.00
2024-03-02T06:49:31.670Z,621.00
2024-03-02T06:50:31.662Z,624.00
2024-03-02T06:51:31.657Z,625.00
2024-03-02T06:52:31.637Z,623.00
2024-03-02T06:53:31.592Z,626.00
2024-03-02T06:54:31.609Z,626.00
2024-03-02T06:55:31.592Z,627.00
2024-03-02T06:56:31.583Z,630.00
2024-03-02T06:57:31.592Z,626.00
2024-03-02T06:58:31.567Z,627.00
2024-03-02T06:59:31.581Z,630.00
2024-03-02T07:00:31.607Z,632.00
2024-03-02T07:01:31.529Z,637.00
2024-03-02T07:02:31.507Z,645.00
2024-03-02T07:03:31.521Z,643.00
2024-03-02T07:04:31.500Z,644.00
2024-03-02T07:05:31.473Z,645.00
2024-03-02T07:06:31.526Z,648.00
2024-03-02T07:07:31.442Z,650.00
2024-03-02T07:08:31.436Z,653.00
2024-03-02T07:09:31.440Z,657.00
2024-03-02T07:10:31.403Z,663.00
2024-03-02T07:11:31.463Z,662.00
2024-03-02T07:12:31.365Z,684.00
2024-03-02T07:13:31.377Z,684.00
2024-03-02T07:14:31.408Z,689.00
2024-03-02T07:15:31.463Z,687.00
2024-03-02T07:16:31.446Z,699.00
2024-03-02T07:17:31.458Z,706.00
2024-03-02T07:18:31.498Z,713.00
2024-03-02T07:19:31.555Z,723.00
2024-03-02T07:20:31.531Z,733.00
2024-03-02T07:21:31.579Z,742.00
2024-03-02T07:22:31.569Z,760.00
2024-03-02T07:23:31.591Z,755.00
2024-03-02T07:24:31.689Z,751.00
2024-03-02T07:27:31.615Z,739.00
2024-03-02T07:28:31.587Z,734.00
2024-03-02T07:29:31.560Z,740.00
2024-03-02T07:30:34.034Z,741.00
2024-03-02T07:31:31.549Z,744.00
2024-03-02T07:32:31.585Z,748.00
2024-03-02T07:33:31.546Z,750.00
2024-03-02T07:34:31.515Z,739.00
2024-03-02T07:35:31.514Z,734.00
2024-03-02T07:36:31.499Z,724.00
2024-03-02T07:37:31.467Z,727.00
2024-03-02T07:38:31.464Z,729.00
2024-03-02T07:39:31.455Z,716.00
2024-03-02T07:40:31.431Z,719.00
2024-03-02T07:41:31.424Z,705.00
2024-03-02T07:42:31.416Z,683.00
2024-03-02T07:43:31.389Z,665.00
2024-03-02T07:44:31.391Z,655.00
2024-03-02T07:45:31.378Z,645.00
2024-03-02T07:46:31.346Z,635.00
2024-03-02T07:47:31.357Z,634.00
2024-03-02T07:48:31.320Z,634.00
2024-03-02T07:49:31.309Z,636.00
2024-03-02T07:50:31.265Z,637.00
2024-03-02T07:51:31.274Z,633.00
2024-03-02T07:52:31.232Z,628.00
2024-03-02T07:53:31.219Z,625.00
2024-03-02T07:54:31.245Z,619.00
2024-03-02T07:55:31.200Z,618.00
2024-03-02T07:56:31.172Z,618.00
2024-03-02T07:57:31.180Z,617.00
2024-03-02T07:58:31.133Z,612.00
2024-03-02T07:59:31.103Z,610.00
2024-03-02T08:00:31.160Z,609.00
2024-03-02T08:01:31.144Z,607.00
2024-03-02T08:02:31.066Z,602.00
2024-03-02T08:03:31.073Z,602.00
2024-03-02T08:04:31.026Z,595.00
2024-03-02T08:05:31.004Z,597.00
2024-03-02T08:06:31.009Z,596.00
2024-03-02T08:07:30.979Z,597.00
2024-03-02T08:08:30.952Z,599.00
2024-03-02T08:09:30.969Z,596.00
2024-03-02T08:10:30.923Z,594.00
2024-03-02T08:11:30.918Z,597.00
2024-03-02T08:12:30.884Z,593.00
2024-03-02T08:13:30.866Z,592.00
2024-03-02T08:14:30.839Z,594.00
2024-03-02T08:15:30.851Z,590.00
2024-03-02T08:16:30.793Z,604.00
2024-03-02T08:17:30.803Z,603.00
2024-03-02T08:18:30.792Z,605.00
2024-03-02T08:19:30.732Z,605.00
2024-03-02T08:20:30.725Z,605.00
2024-03-02T08:21:30.688Z,600.00
2024-03-02T08:22:30.679Z,603.00
2024-03-02T08:23:30.636Z,605.00
2024-03-02T08:24:30.673Z,602.00
2024-03-02T08:25:30.623Z,602.00
2024-03-02T08:26:30.602Z,603.00
2024-03-02T08:27:30.598Z,604.00
2024-03-02T08:28:30.555Z,606.00
2024-03-02T08:29:30.538Z,607.00
2024-03-02T08:30:30.539Z,609.00
2024-03-02T08:31:30.500Z,610.00
2024-03-02T08:32:30.492Z,609.00
2024-03-02T08:33:30.483Z,611.00
2024-03-02T08:34:30.427Z,613.00
2024-03-02T08:35:30.421Z,612.00
2024-03-02T08:36:30.415Z,616.00
2024-03-02T08:37:30.365Z,616.00
2024-03-02T08:38:30.349Z,618.00
2024-03-02T08:39:30.387Z,613.00
2024-03-02T08:40:30.304Z,617.00
2024-03-02T08:41:30.289Z,615.00
2024-03-02T08:42:30.308Z,613.00
2024-03-02T08:43:30.283Z,616.00
2024-03-02T08:44:30.292Z,619.00
2024-03-02T08:45:30.350Z,617.00
2024-03-02T08:46:30.321Z,621.00
2024-03-02T08:47:30.308Z,617.00
2024-03-02T08:48:30.370Z,620.00
2024-03-02T08:49:30.291Z,618.00
2024-03-02T08:50:30.344Z,619.00
2024-03-02T08:51:30.322Z,621.00
2024-03-02T08:52:30.310Z,620.00
2024-03-02T08:53:30.312Z,620.00
2024-03-02T08:54:30.344Z,620.00
2024-03-02T08:55:30.361Z,621.00
2024-03-02T08:56:30.328Z,616.00
2024-03-02T08:57:30.425Z,614.00
2024-03-02T08:58:30.353Z,613.00
2024-03-02T08:59:30.381Z,612.00
2024-03-02T09:00:30.435Z,614.00
2024-03-02T09:01:30.466Z,612.00
2024-03-02T09:02:30.397Z,608.00
2024-03-02T09:03:30.473Z,607.00
2024-03-02T09:04:33.688Z,604.00
2024-03-02T09:05:30.483Z,604.00
2024-03-02T09:06:30.379Z,602.00
2024-03-02T09:07:30.336Z,601.00
2024-03-02T09:08:30.297Z,595.00
2024-03-02T09:09:30.303Z,595.00
2024-03-02T09:10:30.306Z,593.00
2024-03-02T09:11:30.257Z,602.00
2024-03-02T09:12:30.241Z,602.00
2024-03-02T09:13:30.197Z,602.00
2024-03-02T09:14:30.183Z,604.00
2024-03-02T09:15:30.438Z,604.00
2024-03-02T09:16:30.146Z,605.00
2024-03-02T09:17:30.113Z,609.00
2024-03-02T09:18:30.167Z,616.00
2024-03-02T09:19:30.066Z,634.00
2024-03-02T09:20:30.059Z,644.00
2024-03-02T09:21:30.051Z,658.00
2024-03-02T09:22:29.979Z,666.00
2024-03-02T09:23:29.949Z,708.00
2024-03-02T09:24:29.943Z,750.00
2024-03-02T09:25:29.906Z,796.00
2024-03-02T09:26:29.892Z,827.00
2024-03-02T09:27:29.881Z,857.00
2024-03-02T09:28:29.840Z,888.00
2024-03-02T09:29:29.864Z,922.00
2024-03-02T09:30:29.936Z,947.00
2024-03-02T09:31:29.963Z,965.00
2024-03-02T09:32:30.054Z,991.00
2024-03-02T09:33:30.130Z,1022.00
2024-03-02T09:34:30.104Z,1050.00
2024-03-02T09:35:30.111Z,1079.00
2024-03-02T09:36:30.156Z,1092.00
2024-03-02T09:37:30.160Z,1111.00
2024-03-02T09:38:30.193Z,1123.00
2024-03-02T09:39:30.209Z,1145.00
2024-03-02T09:40:30.229Z,1156.00
2024-03-02T09:41:30.258Z,1176.00
2024-03-02T09:42:30.304Z,1196.00
2024-03-02T09:43:30.296Z,1209.00
2024-03-02T09:44:30.324Z,1225.00
2024-03-02T09:45:30.359Z,1244.00
2024-03-02T09:46:30.341Z,1253.00
2024-03-02T09:47:30.381Z,1258.00
2024-03-02T09:48:30.386Z,1280.00
2024-03-02T09:49:30.369Z,1283.00
2024-03-02T09:50:30.368Z,1306.00
2024-03-02T09:51:30.383Z,1315.00
2024-03-02T09:52:30.376Z,1319.00
2024-03-02T09:53:30.364Z,1334.00
2024-03-02T09:54:30.399Z,1340.00
2024-03-02T09:55:30.352Z,1339.00
2024-03-02T09:56:30.365Z,1359.00
2024-03-02T09:57:30.351Z,1365.00
2024-03-02T09:58:30.327Z,1350.00
2024-03-02T09:59:30.298Z,1386.00
2024-03-02T10:00:30.340Z,1364.00
2024-03-02T10:01:30.340Z,1377.00
2024-03-02T10:02:30.226Z,1370.00
2024-03-02T10:03:30.220Z,1371.00
2024-03-02T10:04:30.160Z,1374.00
2024-03-02T10:05:30.264Z,1384.00
2024-03-02T10:06:30.160Z,1399.00
2024-03-02T10:07:30.047Z,1419.00
2024-03-02T10:08:30.007Z,1413.00
2024-03-02T10:09:30.039Z,1424.00
2024-03-02T10:10:29.920Z,1437.00
2024-03-02T10:11:29.941Z,1434.00
2024-03-02T10:12:29.883Z,1452.00
2024-03-02T10:13:29.799Z,1440.00
2024-03-02T10:14:29.763Z,1441.00
2024-03-02T10:15:29.743Z,1441.00
2024-03-02T10:16:29.717Z,1442.00
2024-03-02T10:17:29.671Z,1449.00
2024-03-02T10:18:29.751Z,1442.00
2024-03-02T10:19:29.560Z,1450.00
2024-03-02T10:20:29.523Z,1472.00
2024-03-02T10:21:29.519Z,1489.00
2024-03-02T10:22:29.457Z,1539.00
2024-03-02T10:23:29.408Z,1528.00
2024-03-02T10:24:29.381Z,1542.00
2024-03-02T10:25:37.383Z,1554.00
2024-03-02T10:26:30.287Z,1539.00
2024-03-02T10:27:29.292Z,1540.00
2024-03-02T10:28:29.288Z,1548.00
2024-03-02T10:29:29.185Z,1553.00
2024-03-02T10:30:29.210Z,1575.00
2024-03-02T10:31:29.137Z,1583.00
2024-03-02T10:32:29.155Z,1551.00
2024-03-02T10:33:29.099Z,1541.00
2024-03-02T10:34:29.024Z,1563.00
2024-03-02T10:35:28.986Z,1579.00
2024-03-02T10:36:28.984Z,1572.00
2024-03-02T10:37:28.916Z,1590.00
2024-03-02T10:38:28.892Z,1554.00
2024-03-02T10:39:28.863Z,1585.00
2024-03-02T10:40:28.822Z,1573.00
2024-03-02T10:41:28.781Z,1574.00
2024-03-02T10:42:28.747Z,1563.00
2024-03-02T10:43:28.705Z,1563.00
2024-03-02T10:44:28.680Z,1565.00
2024-03-02T10:45:28.692Z,1570.00
2024-03-02T10:46:28.605Z,1571.00
2024-03-02T10:47:28.574Z,1588.00
2024-03-02T10:48:28.573Z,1600.00
2024-03-02T10:49:28.501Z,1575.00
2024-03-02T10:50:28.469Z,1567.00
2024-03-02T10:51:28.443Z,1571.00
2024-03-02T10:52:28.407Z,1576.00
2024-03-02T10:53:28.365Z,1590.00
2024-03-02T10:54:28.442Z,1560.00
2024-03-02T10:55:28.521Z,1568.00
2024-03-02T10:56:28.317Z,1545.00
2024-03-02T10:57:28.299Z,1582.00
2024-03-02T10:58:28.240Z,1561.00
2024-03-02T10:59:28.131Z,1581.00
2024-03-02T11:00:28.252Z,1585.00
2024-03-02T11:01:28.188Z,1585.00
2024-03-02T11:02:28.015Z,1584.00
2024-03-02T11:03:28.006Z,1574.00
2024-03-02T11:04:27.976Z,1577.00
2024-03-02T11:05:27.919Z,1584.00
2024-03-02T11:06:27.967Z,1559.00
2024-03-02T11:07:27.872Z,1583.00
2024-03-02T11:08:27.828Z,1586.00
2024-03-02T11:09:27.815Z,1556.00
2024-03-02T11:10:27.757Z,1556.00
2024-03-02T11:11:27.856Z,1558.00
2024-03-02T11:12:27.700Z,1563.00
2024-03-02T11:13:27.657Z,1575.00
2024-03-02T11:14:27.619Z,1572.00
2024-03-02T11:15:27.624Z,1577.00
2024-03-02T11:16:27.542Z,1577.00
2024-03-02T11:17:27.524Z,1576.00
2024-03-02T11:18:27.544Z,1576.00
2024-03-02T11:19:27.476Z,1579.00
2024-03-02T11:20:27.470Z,1575.00
2024-03-02T11:21:27.412Z,1568.00
2024-03-02T11:22:27.386Z,1582.00
2024-03-02T11:23:27.286Z,1572.00
2024-03-02T11:24:27.261Z,1561.00
2024-03-02T11:25:27.220Z,1561.00
2024-03-02T11:26:27.179Z,1569.00
2024-03-02T11:27:27.164Z,1557.00
2024-03-02T11:28:27.122Z,1564.00
2024-03-02T11:29:27.154Z,1551.00
2024-03-02T11:30:27.161Z,1568.00
2024-03-02T11:31:27.148Z,1564.00
2024-03-02T11:32:27.171Z,1568.00
2024-03-02T11:33:27.238Z,1547.00
2024-03-02T11:34:27.170Z,1526.00
2024-03-02T11:35:27.265Z,1541.00
2024-03-02T11:36:27.194Z,1561.00
2024-03-02T11:37:27.182Z,1552.00
2024-03-02T11:38:27.236Z,1560.00
2024-03-02T11:39:27.249Z,1551.00
2024-03-02T11:40:27.267Z,1548.00
2024-03-02T11:41:27.318Z,1535.00
2024-03-02T11:42:27.322Z,1526.00
2024-03-02T11:43:27.324Z,1535.00
2024-03-02T11:44:27.336Z,1520.00
2024-03-02T11:45:27.372Z,1527.00
2024-03-02T11:46:27.358Z,1519.00
2024-03-02T11:47:27.393Z,1530.00
2024-03-02T11:48:27.367Z,1517.00
2024-03-02T11:49:27.371Z,1512.00
2024-03-02T11:50:27.373Z,1529.00
2024-03-02T11:51:27.444Z,1514.00
2024-03-02T11:52:27.458Z,1519.00
2024-03-02T11:53:27.509Z,1519.00
2024-03-02T11:54:27.537Z,1517.00
2024-03-02T11:55:27.532Z,1518.00
2024-03-02T11:56:27.549Z,1515.00
2024-03-02T11:57:27.650Z,1514.00
2024-03-02T11:58:27.600Z,1517.00
2024-03-02T11:59:27.627Z,1518.00
2024-03-02T12:00:27.673Z,1521.00
2024-03-02T12:01:27.885Z,1514.00
2024-03-02T12:02:27.648Z,1518.00
2024-03-02T12:03:27.892Z,1518.00
2024-03-02T12:04:27.582Z,1515.00
2024-03-02T12:05:27.540Z,1513.00
2024-03-02T12:06:27.524Z,1514.00
2024-03-02T12:07:27.449Z,1515.00
2024-03-02T12:08:27.410Z,1509.00
2024-03-02T12:09:27.392Z,1512.00
2024-03-02T12:10:27.326Z,1505.00
2024-03-02T12:11:27.393Z,1505.00
2024-03-02T12:12:27.277Z,1505.00
2024-03-02T12:13:27.204Z,1495.00
2024-03-02T12:14:27.154Z,1492.00
2024-03-02T12:15:27.168Z,1498.00
2024-03-02T12:16:27.142Z,1499.00
2024-03-02T12:17:27.039Z,1495.00
2024-03-02T12:18:27.472Z,1489.00
2024-03-02T12:19:26.963Z,1486.00
2024-03-02T12:20:26.919Z,1482.00
2024-03-02T12:21:26.922Z,1489.00
2024-03-02T12:22:26.824Z,1484.00
2024-03-02T12:23:26.894Z,1473.00
2024-03-02T12:24:26.734Z,1483.00
2024-03-02T12:25:26.687Z,1481.00